createdAt,value
2023-10-22T00:00:21.032Z,76
2023-10-22T00:30:11.825Z,75
2023-10-22T01:00:13.332Z,76
2023-10-22T01:30:17.230Z,75
2023-10-22T02:00:04.343Z,75
2023-10-22T02:30:25.705Z,73
2023-10-22T03:00:12.996Z,74
2023-10-22T03:30:13.051Z,72
2023-10-22T04:00:14.150Z,72
2023-10-22T04:30:14.529Z,72
2023-10-22T05:00:18.371Z,72
2023-10-22T05:30:29.992Z,72
2023-10-22T06:00:12.428Z,71
2023-10-22T07:00:23.791Z,71
2023-10-22T07:30:25.236Z,70
2023-10-22T08:00:26.513Z,69
2023-10-22T08:30:09.908Z,68
2023-10-22T09:00:10.775Z,64
2023-10-22T09:30:02.333Z,64
2023-10-22T10:00:06.054Z,60
2023-10-22T10:30:06.410Z,59
2023-10-22T11:00:08.414Z,57
2023-10-22T11:30:05.200Z,51
2023-10-22T12:00:19.990Z,51
2023-10-22T12:30:20.276Z,50
2023-10-22T13:00:11.144Z,50
2023-10-22T13:30:14.825Z,52
2023-10-22T14:00:06.291Z,53
2023-10-22T14:30:07.475Z,49
2023-10-22T15:00:09.547Z,51
2023-10-22T15:30:01.970Z,51
2023-10-22T16:00:27.788Z,55
2023-10-22T16:30:00.903Z,60
2023-10-22T17:00:24.575Z,64
2023-10-22T17:30:08.082Z,66
2023-10-22T18:00:18.757Z,63
2023-10-22T18:30:21.152Z,68
2023-10-22T19:00:03.737Z,66
2023-10-22T19:30:26.059Z,69
2023-10-22T20:00:06.664Z,68
2023-10-22T20:30:24.172Z,69
2023-10-22T21:00:25.237Z,71
2023-10-22T21:30:16.145Z,71
2023-10-22T22:00:29.783Z,72
2023-10-22T22:30:21.302Z,71
2023-10-22T23:00:02.532Z,72
2023-10-22T23:30:05.542Z,72
